Airport ICAO


09:24 UTC

-1°C

Clear skies


An affordable passengers' Moving Map for your aircraft. Made for the iPad and the iPhone
More information here

LFPN Le Noble


Toussous FRANCE   VFR CAVOK


METAR LFPN 180900Z AUTO 13003KT CAVOK M01/M02 Q1019 NOSIG 0h24min

TAF LFPN 180800Z 1809/1818 16005KT CAVOK 1h24min





NOTAMS

OPEN